Time;durP1;ratioP1;P1;durP2;ratioP2;P2;SDS_P1;SDS_P2;PMS_P1;PMS_P2;Temp;Humidity;BMP_temperature;BMP_pressure;BME280_temperature;BME280_humidity;BME280_pressure;Samples;Min_cycle;Max_cycle;Signal;HPM_P1;HPM_P2
2021/11/03 00:01:51;;;;;;;13.63;5.70;;;;;;;;;;5093438;28;20048;-53
2021/11/03 00:04:17;;;;;;;12.75;5.75;;;;;;;;;;5092158;28;20031;-54
2021/11/03 00:06:43;;;;;;;16.45;5.03;;;;;;;;;;5094664;28;20039;-55
2021/11/03 00:09:10;;;;;;;13.68;5.30;;;;;;;;;;5092898;28;20551;-56
2021/11/03 00:11:39;;;;;;;14.85;5.47;;;;;;;;;;5090222;28;20032;-57
2021/11/03 00:14:06;;;;;;;11.57;4.28;;;;;;;;;;5092537;28;20034;-57
2021/11/03 00:16:31;;;;;;;30.52;4.85;;;;;;;;;;5080231;28;20528;-55
2021/11/03 00:18:57;;;;;;;19.25;5.53;;;;;;;;;;5097987;28;20020;-56
2021/11/03 00:21:22;;;;;;;15.93;5.30;;;;;;;;;;5100365;27;20039;-55
2021/11/03 00:23:48;;;;;;;13.63;4.70;;;;;;;;;;5092085;28;20032;-54
2021/11/03 00:26:13;;;;;;;12.88;4.88;;;;;;;;;;5099787;28;20024;-55
2021/11/03 00:28:39;;;;;;;13.52;5.05;;;;;;;;;;5100384;28;20067;-55
2021/11/03 00:31:05;;;;;;;18.52;5.20;;;;;;;;;;5094067;28;20569;-55
2021/11/03 00:33:32;;;;;;;18.70;5.78;;;;;;;;;;5096142;28;20039;-56
2021/11/03 00:35:59;;;;;;;14.25;5.15;;;;;;;;;;5097252;28;20073;-55
2021/11/03 00:38:24;;;;;;;9.52;4.88;;;;;;;;;;5075573;28;20054;-55
2021/11/03 00:40:51;;;;;;;12.77;4.80;;;;;;;;;;5097383;28;20032;-57
2021/11/03 00:43:17;;;;;;;12.63;4.65;;;;;;;;;;5094589;28;20389;-56
2021/11/03 00:45:42;;;;;;;12.45;4.65;;;;;;;;;;5098792;28;20470;-56
2021/11/03 00:48:08;;;;;;;12.50;4.90;;;;;;;;;;5098507;28;20039;-56
2021/11/03 00:50:34;;;;;;;16.80;5.03;;;;;;;;;;5100947;28;20155;-56
2021/11/03 00:53:00;;;;;;;11.90;5.25;;;;;;;;;;5098366;28;20452;-56
2021/11/03 00:55:26;;;;;;;11.38;5.03;;;;;;;;;;5095516;28;20032;-56
2021/11/03 00:57:51;;;;;;;7.85;4.47;;;;;;;;;;5094816;28;20032;-55
2021/11/03 01:00:18;;;;;;;8.35;4.07;;;;;;;;;;5079586;28;20100;-57
2021/11/03 01:02:47;;;;;;;18.92;4.93;;;;;;;;;;5098807;28;20047;-56
2021/11/03 01:05:16;;;;;;;14.32;4.43;;;;;;;;;;5095458;28;20024;-56
2021/11/03 01:07:41;;;;;;;14.60;4.40;;;;;;;;;;5093629;28;20063;-57
2021/11/03 01:10:12;;;;;;;9.95;4.97;;;;;;;;;;5096707;28;20070;-56
2021/11/03 01:12:39;;;;;;;8.52;4.47;;;;;;;;;;5095579;28;20034;-56
2021/11/03 01:15:08;;;;;;;28.77;5.15;;;;;;;;;;5100680;28;20033;-56
2021/11/03 01:17:37;;;;;;;9.23;3.85;;;;;;;;;;5090944;28;20148;-55
2021/11/03 01:20:06;;;;;;;11.05;3.75;;;;;;;;;;5091181;28;20418;-56
2021/11/03 01:22:31;;;;;;;7.40;3.60;;;;;;;;;;5098518;28;20028;-56
2021/11/03 01:24:57;;;;;;;14.70;3.75;;;;;;;;;;5094253;28;20034;-56
2021/11/03 01:27:25;;;;;;;15.10;3.78;;;;;;;;;;5097369;28;20038;-56
2021/11/03 01:29:50;;;;;;;11.68;3.92;;;;;;;;;;5097099;28;20508;-56
2021/11/03 01:32:16;;;;;;;18.02;4.10;;;;;;;;;;5095941;28;20892;-55
2021/11/03 01:34:41;;;;;;;10.10;3.65;;;;;;;;;;5097348;28;20045;-57
2021/11/03 01:37:07;;;;;;;11.52;3.70;;;;;;;;;;5092738;28;20414;-57
2021/11/03 01:39:32;;;;;;;15.25;3.38;;;;;;;;;;5095687;28;20024;-56
2021/11/03 01:41:58;;;;;;;9.02;3.17;;;;;;;;;;5094385;28;20043;-56
2021/11/03 01:44:24;;;;;;;13.13;4.07;;;;;;;;;;5096453;27;20035;-56
2021/11/03 01:47:11;;;;;;;9.77;3.80;;;;;;;;;;5094705;28;20031;-56
2021/11/03 01:49:36;;;;;;;11.63;3.17;;;;;;;;;;5099230;28;20019;-56
2021/11/03 01:52:05;;;;;;;8.88;3.47;;;;;;;;;;5091482;28;20039;-56
2021/11/03 01:54:43;;;;;;;8.60;3.47;;;;;;;;;;5096957;28;20027;-56
2021/11/03 01:57:15;;;;;;;16.33;3.78;;;;;;;;;;5097488;27;20043;-55
2021/11/03 01:59:47;;;;;;;10.30;3.35;;;;;;;;;;5095041;28;20513;-56
2021/11/03 02:02:15;;;;;;;11.75;4.43;;;;;;;;;;5093064;28;20391;-56
2021/11/03 02:04:41;;;;;;;13.95;5.53;;;;;;;;;;5094027;28;20082;-57
2021/11/03 02:07:12;;;;;;;13.10;3.63;;;;;;;;;;5101807;27;20137;-57
2021/11/03 02:09:37;;;;;;;11.85;4.38;;;;;;;;;;5089002;28;20024;-57
2021/11/03 02:12:04;;;;;;;15.32;4.63;;;;;;;;;;5091716;28;20043;-57
2021/11/03 02:14:29;;;;;;;16.60;4.15;;;;;;;;;;5093083;28;20110;-56
2021/11/03 02:16:55;;;;;;;15.05;3.25;;;;;;;;;;5097080;28;20115;-56
2021/11/03 02:19:35;;;;;;;16.95;4.03;;;;;;;;;;5094071;28;20320;-57
2021/11/03 02:22:20;;;;;;;9.77;3.60;;;;;;;;;;5091434;28;20453;-56
2021/11/03 02:24:58;;;;;;;13.90;4.38;;;;;;;;;;5096564;28;20103;-56
2021/11/03 02:27:27;;;;;;;12.60;4.28;;;;;;;;;;5095079;28;20019;-56
2021/11/03 02:29:52;;;;;;;10.45;4.15;;;;;;;;;;5096119;28;20111;-56
2021/11/03 02:32:28;;;;;;;14.18;4.43;;;;;;;;;;5092372;28;20575;-55
2021/11/03 02:34:54;;;;;;;11.10;3.20;;;;;;;;;;5096666;27;20035;-55
2021/11/03 02:37:29;;;;;;;13.30;3.42;;;;;;;;;;5089109;28;20550;-56
2021/11/03 02:40:04;;;;;;;13.60;3.60;;;;;;;;;;5090771;28;20061;-56
2021/11/03 02:42:33;;;;;;;13.07;4.13;;;;;;;;;;5094195;28;20219;-56
2021/11/03 02:45:05;;;;;;;8.73;2.35;;;;;;;;;;5095941;28;20031;-55
2021/11/03 02:47:30;;;;;;;14.60;3.72;;;;;;;;;;5093467;28;20031;-56
2021/11/03 02:49:56;;;;;;;8.90;4.22;;;;;;;;;;5098005;28;20054;-56
2021/11/03 02:52:24;;;;;;;20.67;2.42;;;;;;;;;;5091499;28;20050;-56
2021/11/03 02:54:49;;;;;;;10.55;3.00;;;;;;;;;;5094221;28;20114;-56
2021/11/03 02:57:16;;;;;;;8.07;2.80;;;;;;;;;;5094915;28;20603;-56
2021/11/03 02:59:42;;;;;;;7.20;2.92;;;;;;;;;;5093649;28;20042;-56
2021/11/03 03:02:09;;;;;;;9.68;3.88;;;;;;;;;;5092880;28;20122;-57
2021/11/03 03:04:44;;;;;;;11.93;2.53;;;;;;;;;;5094679;28;20039;-57
2021/11/03 03:07:11;;;;;;;10.05;3.08;;;;;;;;;;5091082;28;20020;-56
2021/11/03 03:09:37;;;;;;;6.43;2.90;;;;;;;;;;5093460;28;20074;-56
2021/11/03 03:12:05;;;;;;;18.95;3.08;;;;;;;;;;5091424;28;20499;-56
2021/11/03 03:14:36;;;;;;;7.57;2.60;;;;;;;;;;5096913;28;20023;-56
2021/11/03 03:17:05;;;;;;;7.90;2.45;;;;;;;;;;5098492;28;20471;-56
2021/11/03 03:19:31;;;;;;;10.32;2.38;;;;;;;;;;5096374;28;20019;-56
2021/11/03 03:21:56;;;;;;;10.85;2.08;;;;;;;;;;5091139;28;20028;-56
2021/11/03 03:24:22;;;;;;;8.52;2.63;;;;;;;;;;5088081;28;20031;-57
2021/11/03 03:26:49;;;;;;;11.52;2.90;;;;;;;;;;5090121;28;20055;-55
2021/11/03 03:29:15;;;;;;;11.23;2.58;;;;;;;;;;5097733;28;20432;-57
2021/11/03 03:31:42;;;;;;;9.80;2.33;;;;;;;;;;5096719;28;20024;-56
2021/11/03 03:34:12;;;;;;;25.10;3.03;;;;;;;;;;5091185;28;20118;-57
2021/11/03 03:36:39;;;;;;;9.48;2.58;;;;;;;;;;5090915;28;20072;-57
2021/11/03 03:39:08;;;;;;;9.07;2.05;;;;;;;;;;5091271;28;20016;-57
2021/11/03 03:41:35;;;;;;;7.93;2.25;;;;;;;;;;5091494;28;20024;-55
2021/11/03 03:44:00;;;;;;;4.55;1.92;;;;;;;;;;5090481;28;20039;-55
2021/11/03 03:46:26;;;;;;;10.00;2.38;;;;;;;;;;5093167;28;20108;-55
2021/11/03 03:48:52;;;;;;;7.43;2.00;;;;;;;;;;5088440;28;20028;-55
2021/11/03 03:51:20;;;;;;;7.57;1.42;;;;;;;;;;5092052;28;20035;-55
2021/11/03 03:53:46;;;;;;;4.85;1.67;;;;;;;;;;5093622;28;20039;-55
2021/11/03 03:56:14;;;;;;;18.10;2.05;;;;;;;;;;5094382;28;20023;-56
2021/11/03 03:58:40;;;;;;;9.40;2.75;;;;;;;;;;5090643;28;20101;-56
2021/11/03 04:01:06;;;;;;;7.88;1.90;;;;;;;;;;5096455;28;20028;-56
2021/11/03 04:03:32;;;;;;;5.10;1.92;;;;;;;;;;5089106;28;20020;-56
2021/11/03 04:05:59;;;;;;;7.43;2.40;;;;;;;;;;5093016;28;20032;-56
2021/11/03 04:08:25;;;;;;;4.18;1.40;;;;;;;;;;5093211;28;20510;-55
2021/11/03 04:10:53;;;;;;;8.27;1.80;;;;;;;;;;5090552;28;20024;-55
2021/11/03 04:13:20;;;;;;;8.10;1.90;;;;;;;;;;5086101;28;20037;-55
2021/11/03 04:15:46;;;;;;;5.13;1.58;;;;;;;;;;5091040;28;20579;-56
2021/11/03 04:18:12;;;;;;;8.88;2.38;;;;;;;;;;5095945;28;20069;-56
2021/11/03 04:20:38;;;;;;;19.10;1.75;;;;;;;;;;5097730;28;20036;-56
2021/11/03 04:23:03;;;;;;;2.72;1.27;;;;;;;;;;5092694;28;20063;-55
2021/11/03 04:25:29;;;;;;;7.15;1.65;;;;;;;;;;5091079;28;20472;-55
2021/11/03 04:27:54;;;;;;;10.88;2.10;;;;;;;;;;5078662;28;20024;-56
2021/11/03 04:30:22;;;;;;;5.78;2.00;;;;;;;;;;5090073;28;20518;-56
2021/11/03 04:32:47;;;;;;;8.32;1.80;;;;;;;;;;5090336;28;20031;-56
2021/11/03 04:35:14;;;;;;;15.57;2.03;;;;;;;;;;5076695;28;20116;-56
2021/11/03 04:37:40;;;;;;;8.15;2.85;;;;;;;;;;5090669;28;20486;-55
2021/11/03 04:40:09;;;;;;;9.50;2.05;;;;;;;;;;5091009;28;20518;-55
2021/11/03 04:42:35;;;;;;;12.80;2.03;;;;;;;;;;5091926;28;20423;-55
2021/11/03 04:45:01;;;;;;;11.32;2.20;;;;;;;;;;5094077;28;20024;-56
2021/11/03 04:47:26;;;;;;;5.97;2.47;;;;;;;;;;5088462;28;20056;-56
2021/11/03 04:49:51;;;;;;;3.00;1.63;;;;;;;;;;5092682;28;20119;-56
2021/11/03 04:52:17;;;;;;;9.88;2.25;;;;;;;;;;5077924;28;20036;-56
2021/11/03 04:54:43;;;;;;;14.40;2.35;;;;;;;;;;5095489;28;20035;-57
2021/11/03 04:57:15;;;;;;;13.35;2.53;;;;;;;;;;5092937;28;20031;-56
2021/11/03 04:59:41;;;;;;;6.07;1.80;;;;;;;;;;5096236;28;20048;-56
2021/11/03 05:02:07;;;;;;;6.07;0.95;;;;;;;;;;5078479;28;20089;-56
2021/11/03 05:04:32;;;;;;;13.75;1.70;;;;;;;;;;5097364;28;20123;-56
2021/11/03 05:06:58;;;;;;;16.35;2.20;;;;;;;;;;5092726;28;20082;-56
2021/11/03 05:09:24;;;;;;;8.32;2.53;;;;;;;;;;5096794;28;20509;-56
2021/11/03 05:11:49;;;;;;;8.48;1.77;;;;;;;;;;5099861;28;20044;-56
2021/11/03 05:14:15;;;;;;;8.48;1.70;;;;;;;;;;5099961;27;20475;-56
2021/11/03 05:16:40;;;;;;;4.07;1.75;;;;;;;;;;5096439;28;20150;-56
2021/11/03 05:19:06;;;;;;;7.72;2.08;;;;;;;;;;5100305;28;20195;-55
2021/11/03 05:21:32;;;;;;;13.68;1.77;;;;;;;;;;5095213;27;20299;-54
2021/11/03 05:23:58;;;;;;;11.95;1.90;;;;;;;;;;5092773;28;20036;-55
2021/11/03 05:26:26;;;;;;;11.80;2.15;;;;;;;;;;5091527;28;20035;-55
2021/11/03 05:28:54;;;;;;;7.30;2.22;;;;;;;;;;5093633;28;20039;-55
2021/11/03 05:31:19;;;;;;;7.90;2.78;;;;;;;;;;5098801;28;20024;-56
2021/11/03 05:33:45;;;;;;;4.75;2.28;;;;;;;;;;5096891;28;20123;-56
2021/11/03 05:36:21;;;;;;;10.38;3.05;;;;;;;;;;5079278;28;20032;-55
2021/11/03 05:38:47;;;;;;;15.07;2.83;;;;;;;;;;5090657;28;20490;-55
2021/11/03 05:41:13;;;;;;;6.43;1.70;;;;;;;;;;5092655;28;20039;-55
2021/11/03 05:43:39;;;;;;;12.63;1.80;;;;;;;;;;5093883;28;20028;-56
2021/11/03 05:46:05;;;;;;;6.88;1.45;;;;;;;;;;5095318;28;20040;-56
2021/11/03 05:48:32;;;;;;;8.25;1.27;;;;;;;;;;5095105;28;20028;-55
2021/11/03 05:50:58;;;;;;;10.35;1.50;;;;;;;;;;5076164;28;20032;-56
2021/11/03 05:53:23;;;;;;;23.40;1.55;;;;;;;;;;5093613;28;20122;-55
2021/11/03 05:55:49;;;;;;;12.52;1.73;;;;;;;;;;5092925;28;20032;-55
2021/11/03 05:58:14;;;;;;;7.80;1.35;;;;;;;;;;5098118;28;20604;-55
2021/11/03 06:00:40;;;;;;;5.97;1.33;;;;;;;;;;5096306;28;20039;-56
2021/11/03 06:03:06;;;;;;;7.13;1.10;;;;;;;;;;5096346;28;20039;-55
2021/11/03 06:05:31;;;;;;;8.45;1.55;;;;;;;;;;5094946;28;20101;-56
2021/11/03 06:08:00;;;;;;;14.52;1.30;;;;;;;;;;5098989;28;20474;-54
2021/11/03 06:10:33;;;;;;;10.30;1.90;;;;;;;;;;5095938;28;20032;-55
2021/11/03 06:13:02;;;;;;;13.45;2.28;;;;;;;;;;5098689;28;20038;-56
2021/11/03 06:15:30;;;;;;;8.68;1.33;;;;;;;;;;5093939;28;20051;-56
2021/11/03 06:17:56;;;;;;;5.57;1.23;;;;;;;;;;5081091;28;20554;-56
2021/11/03 06:20:22;;;;;;;8.10;1.58;;;;;;;;;;5094005;28;20035;-57
2021/11/03 06:22:48;;;;;;;12.05;1.60;;;;;;;;;;5093982;28;20038;-57
2021/11/03 06:25:17;;;;;;;8.43;1.33;;;;;;;;;;5095855;28;20036;-56
2021/11/03 06:27:46;;;;;;;6.57;1.60;;;;;;;;;;5088935;28;20012;-57
2021/11/03 06:30:19;;;;;;;15.77;1.70;;;;;;;;;;5091583;28;20032;-57
2021/11/03 06:32:44;;;;;;;15.30;1.27;;;;;;;;;;5093285;28;20028;-56
2021/11/03 06:35:11;;;;;;;12.45;1.30;;;;;;;;;;5095185;28;22252;-56
2021/11/03 06:37:37;;;;;;;8.43;1.50;;;;;;;;;;5095192;28;20089;-57
2021/11/03 06:40:05;;;;;;;13.30;1.30;;;;;;;;;;5095761;28;20027;-56
2021/11/03 06:42:31;;;;;;;5.65;1.27;;;;;;;;;;5097024;28;20035;-57
2021/11/03 06:44:56;;;;;;;8.73;1.33;;;;;;;;;;5092883;28;20106;-54
2021/11/03 06:47:22;;;;;;;9.90;1.00;;;;;;;;;;5091195;28;20148;-54
2021/11/03 06:49:47;;;;;;;5.90;0.73;;;;;;;;;;5093240;28;20028;-55
2021/11/03 06:52:14;;;;;;;9.15;1.17;;;;;;;;;;5095125;28;20530;-56
2021/11/03 06:54:40;;;;;;;5.80;0.90;;;;;;;;;;5094316;28;20594;-56
2021/11/03 06:57:05;;;;;;;19.45;1.67;;;;;;;;;;5089355;28;20208;-56
2021/11/03 06:59:31;;;;;;;12.43;1.40;;;;;;;;;;5094625;28;20354;-56
2021/11/03 07:01:56;;;;;;;6.60;1.13;;;;;;;;;;5093918;28;20055;-55
2021/11/03 07:04:22;;;;;;;5.40;0.82;;;;;;;;;;5092361;28;20047;-56
2021/11/03 07:06:48;;;;;;;5.05;1.23;;;;;;;;;;5096408;28;20493;-56
2021/11/03 07:09:15;;;;;;;8.75;1.05;;;;;;;;;;5093243;28;20044;-56
2021/11/03 07:11:40;;;;;;;10.35;1.27;;;;;;;;;;5098761;28;20034;-56
2021/11/03 07:14:06;;;;;;;8.55;1.52;;;;;;;;;;5093254;28;20023;-56
2021/11/03 07:16:33;;;;;;;9.07;1.20;;;;;;;;;;5091318;28;20316;-55
2021/11/03 07:18:58;;;;;;;3.13;1.00;;;;;;;;;;5095034;28;20486;-55
2021/11/03 07:21:24;;;;;;;5.50;1.00;;;;;;;;;;5094024;28;20045;-56
2021/11/03 07:23:50;;;;;;;5.05;0.82;;;;;;;;;;5096694;28;20067;-56
2021/11/03 07:26:15;;;;;;;6.63;1.10;;;;;;;;;;5095080;28;20036;-55
2021/11/03 07:28:41;;;;;;;6.82;1.77;;;;;;;;;;5096780;28;20032;-55
2021/11/03 07:31:07;;;;;;;12.18;1.35;;;;;;;;;;5093359;28;20151;-55
2021/11/03 07:33:33;;;;;;;17.33;1.42;;;;;;;;;;5096010;28;20130;-55
2021/11/03 07:36:00;;;;;;;9.77;1.70;;;;;;;;;;5092837;28;20024;-55
2021/11/03 07:38:26;;;;;;;9.32;1.25;;;;;;;;;;5075736;28;20035;-56
2021/11/03 07:40:55;;;;;;;4.65;1.27;;;;;;;;;;5079507;28;20024;-56
2021/11/03 07:43:23;;;;;;;7.38;1.33;;;;;;;;;;5071106;28;20101;-56
2021/11/03 07:45:50;;;;;;;7.80;1.27;;;;;;;;;;5096562;28;20032;-56
2021/11/03 07:48:17;;;;;;;6.18;1.55;;;;;;;;;;5089010;28;20058;-56
2021/11/03 07:50:47;;;;;;;3.15;1.60;;;;;;;;;;5095736;28;20028;-54
2021/11/03 07:53:14;;;;;;;9.50;1.83;;;;;;;;;;5087900;28;20402;-55
2021/11/03 07:55:47;;;;;;;13.35;1.42;;;;;;;;;;5094409;28;20019;-55
2021/11/03 07:58:19;;;;;;;7.80;1.58;;;;;;;;;;5092607;28;20086;-55
2021/11/03 08:00:45;;;;;;;8.98;0.88;;;;;;;;;;5097699;28;20028;-55
2021/11/03 08:03:10;;;;;;;10.10;1.70;;;;;;;;;;5093532;28;20060;-56
2021/11/03 08:05:37;;;;;;;5.15;1.35;;;;;;;;;;5094284;28;20082;-55
2021/11/03 08:08:09;;;;;;;6.85;1.40;;;;;;;;;;5072766;28;20666;-54
2021/11/03 08:10:36;;;;;;;12.60;1.15;;;;;;;;;;5090070;28;20028;-56
2021/11/03 08:13:03;;;;;;;10.63;1.25;;;;;;;;;;5098553;28;20693;-56
2021/11/03 08:15:29;;;;;;;17.02;2.45;;;;;;;;;;5092664;28;20067;-56
2021/11/03 08:17:56;;;;;;;5.22;1.05;;;;;;;;;;5089099;28;20115;-55
2021/11/03 08:20:25;;;;;;;13.98;1.60;;;;;;;;;;5090826;28;20036;-50
2021/11/03 08:22:57;;;;;;;7.63;1.52;;;;;;;;;;5094720;28;20032;-47
2021/11/03 08:25:24;;;;;;;7.78;1.38;;;;;;;;;;5076482;28;20038;-47
2021/11/03 08:27:49;;;;;;;9.57;1.20;;;;;;;;;;5093769;28;20278;-48
2021/11/03 08:30:16;;;;;;;9.90;1.25;;;;;;;;;;5096492;28;20317;-47
2021/11/03 08:32:47;;;;;;;11.60;1.38;;;;;;;;;;5098280;28;20521;-50
2021/11/03 08:35:14;;;;;;;3.80;1.55;;;;;;;;;;5103624;27;20377;-50
2021/11/03 08:37:40;;;;;;;9.70;1.20;;;;;;;;;;5105146;27;20028;-50
2021/11/03 08:40:09;;;;;;;10.10;1.73;;;;;;;;;;5102429;28;20447;-52
2021/11/03 08:42:35;;;;;;;15.20;3.05;;;;;;;;;;5097156;28;20547;-52
2021/11/03 08:45:00;;;;;;;11.52;2.65;;;;;;;;;;5101652;28;20040;-50
2021/11/03 08:47:26;;;;;;;5.68;1.95;;;;;;;;;;5096108;28;20035;-48
2021/11/03 08:49:54;;;;;;;9.75;1.70;;;;;;;;;;5091185;28;20036;-50
2021/11/03 08:52:20;;;;;;;5.63;1.08;;;;;;;;;;5094011;28;20425;-50
2021/11/03 08:54:47;;;;;;;6.70;2.25;;;;;;;;;;5096480;28;20165;-52
2021/11/03 08:57:13;;;;;;;7.65;1.92;;;;;;;;;;5095464;28;20031;-49
2021/11/03 08:59:39;;;;;;;13.68;2.22;;;;;;;;;;5088331;27;20034;-50
2021/11/03 09:02:05;;;;;;;15.80;1.55;;;;;;;;;;5079419;28;20040;-50
2021/11/03 09:04:34;;;;;;;6.15;1.55;;;;;;;;;;5097273;28;20549;-52
2021/11/03 09:06:59;;;;;;;6.97;1.30;;;;;;;;;;5095517;28;20118;-50
2021/11/03 09:09:26;;;;;;;7.78;1.67;;;;;;;;;;5096878;28;20107;-51
2021/11/03 09:11:52;;;;;;;14.80;3.10;;;;;;;;;;5092780;28;20459;-50
2021/11/03 09:14:20;;;;;;;7.07;2.03;;;;;;;;;;5093495;28;20032;-48
2021/11/03 09:16:51;;;;;;;9.40;1.70;;;;;;;;;;5096926;28;20390;-49
2021/11/03 09:19:17;;;;;;;11.40;1.48;;;;;;;;;;5097511;28;20028;-52
2021/11/03 09:21:44;;;;;;;7.18;1.83;;;;;;;;;;5093002;28;20493;-49
2021/11/03 09:24:10;;;;;;;4.78;1.02;;;;;;;;;;5074879;28;20375;-52
2021/11/03 09:26:35;;;;;;;8.18;1.60;;;;;;;;;;5095899;28;20510;-49
2021/11/03 09:29:02;;;;;;;11.85;1.48;;;;;;;;;;5095916;28;20302;-49
2021/11/03 09:31:29;;;;;;;11.68;1.30;;;;;;;;;;5100889;28;20066;-48
2021/11/03 09:33:54;;;;;;;11.57;1.50;;;;;;;;;;5097890;28;20032;-52
2021/11/03 09:36:22;;;;;;;5.85;1.35;;;;;;;;;;5098247;28;20027;-49
2021/11/03 09:38:49;;;;;;;10.43;1.52;;;;;;;;;;5092143;28;20020;-50
2021/11/03 09:41:24;;;;;;;10.50;1.50;;;;;;;;;;5093041;28;20024;-48
2021/11/03 09:43:59;;;;;;;11.20;1.33;;;;;;;;;;5097440;28;20636;-51
2021/11/03 09:46:52;;;;;;;7.00;1.35;;;;;;;;;;5076950;28;20394;-49
2021/11/03 09:49:24;;;;;;;10.52;1.75;;;;;;;;;;5068076;28;20063;-49
2021/11/03 09:51:57;;;;;;;7.15;1.88;;;;;;;;;;5089559;28;20024;-49
2021/11/03 09:54:25;;;;;;;9.57;1.70;;;;;;;;;;5100158;27;20039;-51
2021/11/03 09:57:02;;;;;;;10.48;2.17;;;;;;;;;;5091411;28;20027;-51
2021/11/03 09:59:43;;;;;;;4.40;0.93;;;;;;;;;;5097195;28;20292;-51
2021/11/03 10:02:39;;;;;;;7.67;1.33;;;;;;;;;;5084828;28;20521;-50
2021/11/03 10:05:13;;;;;;;5.95;1.20;;;;;;;;;;5092645;28;20020;-51
2021/11/03 10:07:51;;;;;;;9.90;1.45;;;;;;;;;;5088178;28;20541;-51
2021/11/03 10:10:19;;;;;;;12.00;1.73;;;;;;;;;;5092239;28;20028;-49
2021/11/03 10:12:45;;;;;;;13.75;1.40;;;;;;;;;;5092776;28;20074;-49
2021/11/03 10:15:11;;;;;;;9.82;1.25;;;;;;;;;;5094512;28;20036;-50
2021/11/03 10:17:36;;;;;;;9.45;1.35;;;;;;;;;;5094613;28;20533;-49
2021/11/03 10:20:30;;;;;;;6.65;1.10;;;;;;;;;;5096482;28;20513;-53
2021/11/03 10:23:19;;;;;;;8.20;1.92;;;;;;;;;;5092689;28;20089;-51
2021/11/03 10:25:58;;;;;;;8.13;1.20;;;;;;;;;;5092237;28;20479;-48
2021/11/03 10:28:28;;;;;;;6.88;1.50;;;;;;;;;;5091337;28;20063;-49
2021/11/03 10:30:54;;;;;;;8.18;1.00;;;;;;;;;;5096859;28;20028;-49
2021/11/03 10:33:41;;;;;;;7.90;1.52;;;;;;;;;;5071850;28;20125;-52
2021/11/03 10:36:18;;;;;;;9.57;1.48;;;;;;;;;;5090353;28;20023;-52
2021/11/03 10:38:56;;;;;;;12.60;2.08;;;;;;;;;;5092762;28;20031;-52
2021/11/03 10:41:35;;;;;;;9.35;0.95;;;;;;;;;;5090133;28;20037;-51
2021/11/03 10:44:08;;;;;;;7.10;0.93;;;;;;;;;;5096886;28;20032;-52
2021/11/03 10:47:11;;;;;;;10.38;1.25;;;;;;;;;;5091224;28;20067;-51
2021/11/03 10:49:56;;;;;;;4.97;1.08;;;;;;;;;;5067331;28;20044;-51
2021/11/03 10:52:33;;;;;;;14.23;3.13;;;;;;;;;;5094314;28;20402;-48
2021/11/03 10:55:14;;;;;;;9.20;1.55;;;;;;;;;;5089711;28;20028;-48
2021/11/03 10:57:43;;;;;;;11.38;1.10;;;;;;;;;;5091447;28;20042;-49
2021/11/03 11:00:31;;;;;;;11.18;1.27;;;;;;;;;;5091004;28;20086;-50
2021/11/03 11:03:13;;;;;;;9.32;1.80;;;;;;;;;;5084404;28;20123;-52
2021/11/03 11:05:44;;;;;;;13.55;1.17;;;;;;;;;;5090498;28;20024;-50
2021/11/03 11:08:19;;;;;;;10.30;0.98;;;;;;;;;;5092440;28;20407;-49
2021/11/03 11:10:58;;;;;;;9.40;1.17;;;;;;;;;;5090965;28;20031;-52
2021/11/03 11:13:32;;;;;;;6.70;1.42;;;;;;;;;;5094147;28;20027;-48
2021/11/03 11:16:07;;;;;;;7.40;1.05;;;;;;;;;;5089304;28;20027;-51
2021/11/03 11:18:44;;;;;;;15.65;1.38;;;;;;;;;;5093575;28;20834;-52
2021/11/03 11:21:19;;;;;;;12.85;1.30;;;;;;;;;;5091038;28;20059;-51
2021/11/03 11:23:52;;;;;;;5.32;1.10;;;;;;;;;;5093803;28;20478;-49
2021/11/03 11:26:39;;;;;;;11.30;1.10;;;;;;;;;;5093038;28;20027;-51
2021/11/03 11:29:15;;;;;;;8.40;1.33;;;;;;;;;;5089518;28;20028;-52
2021/11/03 11:31:57;;;;;;;6.82;1.05;;;;;;;;;;5094508;28;20475;-50
2021/11/03 11:34:39;;;;;;;4.70;0.65;;;;;;;;;;5091827;28;20125;-49
2021/11/03 11:37:28;;;;;;;9.97;1.20;;;;;;;;;;5093835;28;20291;-49
2021/11/03 11:39:58;;;;;;;18.60;1.17;;;;;;;;;;5081045;28;20131;-49
2021/11/03 11:42:30;;;;;;;6.30;0.93;;;;;;;;;;5088023;28;20351;-49
2021/11/03 11:45:20;;;;;;;4.68;0.98;;;;;;;;;;5091167;28;20027;-52
2021/11/03 11:47:50;;;;;;;5.97;0.63;;;;;;;;;;5088258;28;20032;-49
2021/11/03 11:50:32;;;;;;;8.38;0.70;;;;;;;;;;5091988;28;20557;-50
2021/11/03 11:52:59;;;;;;;7.90;1.00;;;;;;;;;;5089430;28;20068;-50
2021/11/03 11:55:32;;;;;;;6.10;0.70;;;;;;;;;;5090123;28;20047;-50
2021/11/03 11:58:07;;;;;;;5.43;1.00;;;;;;;;;;5094526;28;20019;-49
2021/11/03 12:00:35;;;;;;;9.68;1.30;;;;;;;;;;5083057;28;20550;-50
2021/11/03 12:03:13;;;;;;;2.78;0.90;;;;;;;;;;5084222;28;20154;-51
2021/11/03 12:05:43;;;;;;;5.63;2.15;;;;;;;;;;5077147;28;20037;-51
2021/11/03 12:08:09;;;;;;;9.85;1.05;;;;;;;;;;5090813;28;20040;-52
2021/11/03 12:10:39;;;;;;;5.55;0.77;;;;;;;;;;5098899;28;20110;-51
2021/11/03 12:13:23;;;;;;;8.05;0.98;;;;;;;;;;5095140;28;20433;-50
2021/11/03 12:15:49;;;;;;;8.20;0.98;;;;;;;;;;5094204;28;20027;-50
2021/11/03 12:18:37;;;;;;;4.40;1.05;;;;;;;;;;5092231;28;20101;-49
2021/11/03 12:21:03;;;;;;;10.45;0.95;;;;;;;;;;5096858;27;20023;-51
2021/11/03 12:23:48;;;;;;;9.27;0.98;;;;;;;;;;5093813;28;20389;-52
2021/11/03 12:26:34;;;;;;;7.40;1.00;;;;;;;;;;5095703;28;20053;-52
2021/11/03 12:29:14;;;;;;;8.05;0.80;;;;;;;;;;5102664;28;20024;-51
2021/11/03 12:31:43;;;;;;;14.25;0.88;;;;;;;;;;5094687;28;20023;-50
2021/11/03 12:34:08;;;;;;;8.30;1.40;;;;;;;;;;5094802;28;20024;-52
2021/11/03 12:36:54;;;;;;;3.75;0.88;;;;;;;;;;5091276;28;20080;-52
2021/11/03 12:39:28;;;;;;;4.88;0.65;;;;;;;;;;5063528;28;20040;-52
2021/11/03 12:41:55;;;;;;;14.90;0.85;;;;;;;;;;5090157;28;20512;-53
2021/11/03 12:44:27;;;;;;;7.80;0.77;;;;;;;;;;5080530;28;20078;-53
2021/11/03 12:46:54;;;;;;;10.60;0.90;;;;;;;;;;5087435;28;20035;-50
2021/11/03 12:49:26;;;;;;;1.83;0.50;;;;;;;;;;5092232;28;20505;-51
2021/11/03 12:51:54;;;;;;;;;;;;;;;;;;5092161;28;20019;-53
2021/11/03 12:54:23;;;;;;;4.18;0.63;;;;;;;;;;5093483;27;20394;-54
2021/11/03 12:57:24;;;;;;;2.35;0.60;;;;;;;;;;5096318;28;20035;-53
2021/11/03 13:00:17;;;;;;;5.40;0.70;;;;;;;;;;5091830;28;20371;-51
2021/11/03 13:02:52;;;;;;;9.48;0.50;;;;;;;;;;5097039;28;20498;-52
2021/11/03 13:05:18;;;;;;;4.72;0.60;;;;;;;;;;5098423;28;20439;-52
2021/11/03 13:07:43;;;;;;;2.50;0.65;;;;;;;;;;5085544;28;20130;-53
2021/11/03 13:10:21;;;;;;;11.35;1.30;;;;;;;;;;5103748;28;20084;-53
2021/11/03 13:13:00;;;;;;;6.03;1.00;;;;;;;;;;5098305;28;20505;-53
2021/11/03 13:15:37;;;;;;;5.55;1.08;;;;;;;;;;5095415;28;20114;-54
2021/11/03 13:18:23;;;;;;;16.05;2.03;;;;;;;;;;5098794;27;20039;-52
2021/11/03 13:21:22;;;;;;;8.23;0.70;;;;;;;;;;5096689;27;20032;-54
2021/11/03 13:23:50;;;;;;;1.70;0.75;;;;;;;;;;5092067;28;20034;-53
2021/11/03 13:26:28;;;;;;;3.55;0.40;;;;;;;;;;5096897;28;20036;-53
2021/11/03 13:28:56;;;;;;;4.90;0.80;;;;;;;;;;5091788;28;20074;-51
2021/11/03 13:31:39;;;;;;;5.35;1.27;;;;;;;;;;5103311;27;20161;-54
2021/11/03 13:34:24;;;;;;;2.67;0.68;;;;;;;;;;5098110;28;20546;-55
2021/11/03 13:36:54;;;;;;;5.15;0.70;;;;;;;;;;5103462;28;20035;-54
2021/11/03 13:39:25;;;;;;;6.18;0.85;;;;;;;;;;5104428;28;20542;-54
2021/11/03 13:41:51;;;;;;;4.05;0.82;;;;;;;;;;5095575;28;20497;-53
2021/11/03 13:44:26;;;;;;;6.47;0.80;;;;;;;;;;5097320;28;20035;-50
2021/11/03 13:46:53;;;;;;;4.90;2.13;;;;;;;;;;5091592;28;20480;-52
2021/11/03 13:49:23;;;;;;;1.70;0.60;;;;;;;;;;5093255;28;20495;-50
2021/11/03 13:51:54;;;;;;;5.80;0.73;;;;;;;;;;5095752;28;20047;-49
2021/11/03 13:54:32;;;;;;;4.85;0.52;;;;;;;;;;5097507;28;20039;-49
2021/11/03 13:57:00;;;;;;;2.28;0.68;;;;;;;;;;5100462;28;20514;-51
2021/11/03 13:59:31;;;;;;;1.48;0.40;;;;;;;;;;5098193;28;20102;-51
2021/11/03 14:02:00;;;;;;;4.80;0.35;;;;;;;;;;5093853;27;20041;-51
2021/11/03 14:04:40;;;;;;;2.58;0.45;;;;;;;;;;5100441;28;20073;-51
2021/11/03 14:07:17;;;;;;;2.28;0.40;;;;;;;;;;5099106;28;20370;-52
2021/11/03 14:09:44;;;;;;;7.43;0.70;;;;;;;;;;5090184;28;20073;-53
2021/11/03 14:12:10;;;;;;;5.40;0.50;;;;;;;;;;5076832;28;20162;-58
2021/11/03 14:14:38;;;;;;;5.45;0.55;;;;;;;;;;5104656;28;20026;-57
2021/11/03 14:17:42;;;;;;;2.33;0.57;;;;;;;;;;5102455;28;20035;-56
2021/11/03 14:20:33;;;;;;;2.78;0.50;;;;;;;;;;5090681;27;20035;-57
2021/11/03 14:23:00;;;;;;;3.03;0.45;;;;;;;;;;5096266;28;20105;-57
2021/11/03 14:25:31;;;;;;;5.47;0.73;;;;;;;;;;5096472;28;20031;-57
2021/11/03 14:27:59;;;;;;;3.58;0.43;;;;;;;;;;5092118;28;20020;-57
2021/11/03 14:30:29;;;;;;;2.65;0.68;;;;;;;;;;5099859;28;20028;-57
2021/11/03 14:32:55;;;;;;;3.03;0.70;;;;;;;;;;5091324;28;20548;-57
2021/11/03 14:35:24;;;;;;;7.20;0.80;;;;;;;;;;5097331;28;20174;-57
2021/11/03 14:37:51;;;;;;;5.32;0.82;;;;;;;;;;5090364;28;20107;-57
2021/11/03 14:40:19;;;;;;;3.13;0.63;;;;;;;;;;5098792;27;20398;-57
2021/11/03 14:42:46;;;;;;;2.17;0.52;;;;;;;;;;5094555;28;20411;-57
2021/11/03 14:45:12;;;;;;;5.15;0.80;;;;;;;;;;5091494;28;20024;-58
2021/11/03 14:47:41;;;;;;;2.55;0.55;;;;;;;;;;5095202;28;20072;-56
2021/11/03 14:50:13;;;;;;;2.90;0.40;;;;;;;;;;5089508;28;20024;-54
2021/11/03 14:52:39;;;;;;;2.10;0.52;;;;;;;;;;5090196;28;20386;-55
2021/11/03 14:55:23;;;;;;;6.60;0.80;;;;;;;;;;5067446;28;20437;-55